createdAt,value
2018-05-25T00:00:10.497Z,18.6666666667
2018-05-25T00:00:23.017Z,18.6111111111
2018-05-25T00:00:35.439Z,18.6111111111
2018-05-25T00:00:47.849Z,18.6111111111
2018-05-25T00:01:00.260Z,18.6111111111
2018-05-25T00:01:12.692Z,18.6111111111
2018-05-25T00:01:25.113Z,18.6111111111
2018-05-25T00:01:37.515Z,18.6111111111
2018-05-25T00:01:50.065Z,18.6111111111
2018-05-25T00:02:02.464Z,18.5555555556
2018-05-25T00:02:14.881Z,18.6111111111
2018-05-25T00:02:27.295Z,18.5555555556
2018-05-25T00:02:39.692Z,18.5555555556
2018-05-25T00:02:52.089Z,18.5555555556
2018-05-25T00:03:04.492Z,18.6111111111
2018-05-25T00:03:16.916Z,18.6111111111
2018-05-25T00:03:29.329Z,18.5555555556
2018-05-25T00:03:41.736Z,18.5555555556
2018-05-25T00:03:54.153Z,18.6111111111
2018-05-25T00:04:06.570Z,18.5555555556
2018-05-25T00:04:18.969Z,18.5555555556
2018-05-25T00:04:31.382Z,18.5555555556
2018-05-25T00:04:43.815Z,18.5555555556
2018-05-25T00:04:56.218Z,18.5555555556
2018-05-25T00:05:08.816Z,18.5555555556
2018-05-25T00:05:21.226Z,18.5555555556
2018-05-25T00:05:33.672Z,18.5555555556
2018-05-25T00:05:46.102Z,18.5555555556
2018-05-25T00:05:58.548Z,18.5555555556
2018-05-25T00:06:10.971Z,18.5555555556
2018-05-25T00:06:23.392Z,18.5555555556
2018-05-25T00:06:35.799Z,18.5555555556
2018-05-25T00:06:48.197Z,18.5555555556
2018-05-25T00:07:00.605Z,18.5555555556
2018-05-25T00:07:13.045Z,18.5555555556
2018-05-25T00:07:25.476Z,18.5555555556
2018-05-25T00:07:37.895Z,18.5555555556
2018-05-25T00:07:50.309Z,18.5
2018-05-25T00:08:02.727Z,18.5555555556
2018-05-25T00:08:15.137Z,18.5
2018-05-25T00:08:27.558Z,18.5
2018-05-25T00:08:39.961Z,18.5
2018-05-25T00:08:52.365Z,18.5555555556
2018-05-25T00:09:04.771Z,18.5555555556
2018-05-25T00:09:17.175Z,18.5
2018-05-25T00:09:29.570Z,18.5
2018-05-25T00:09:42.010Z,18.5
2018-05-25T00:09:54.428Z,18.5
2018-05-25T00:10:06.896Z,18.5
2018-05-25T00:10:19.290Z,18.5
2018-05-25T00:10:31.704Z,18.5
2018-05-25T00:10:44.128Z,18.4444444444
2018-05-25T00:10:56.549Z,18.5
2018-05-25T00:11:08.960Z,18.5
2018-05-25T00:11:21.364Z,18.5
2018-05-25T00:11:33.765Z,18.5
2018-05-25T00:11:46.175Z,18.5
2018-05-25T00:11:58.595Z,18.4444444444
2018-05-25T00:12:10.998Z,18.5
2018-05-25T00:12:23.410Z,18.5
2018-05-25T00:12:35.813Z,18.5
2018-05-25T00:12:48.228Z,18.4444444444
2018-05-25T00:13:00.632Z,18.4444444444
2018-05-25T00:13:13.033Z,18.4444444444
2018-05-25T00:13:25.431Z,18.4444444444
2018-05-25T00:13:37.850Z,18.4444444444
2018-05-25T00:13:50.264Z,18.5
2018-05-25T00:14:02.668Z,18.4444444444
2018-05-25T00:14:15.116Z,18.4444444444
2018-05-25T00:14:27.525Z,18.4444444444
2018-05-25T00:14:39.930Z,18.4444444444
2018-05-25T00:14:52.340Z,18.4444444444
2018-05-25T00:15:04.753Z,18.4444444444
2018-05-25T00:15:17.245Z,18.4444444444
2018-05-25T00:15:29.664Z,18.4444444444
2018-05-25T00:15:42.066Z,18.4444444444
2018-05-25T00:15:54.473Z,18.3888888889
2018-05-25T00:16:06.868Z,18.4444444444
2018-05-25T00:16:19.272Z,18.3888888889
2018-05-25T00:16:31.677Z,18.3888888889
2018-05-25T00:16:44.071Z,18.4444444444
2018-05-25T00:16:56.478Z,18.3888888889
2018-05-25T00:17:08.906Z,18.3888888889
2018-05-25T00:17:21.315Z,18.3888888889
2018-05-25T00:17:33.725Z,18.3888888889
2018-05-25T00:17:46.141Z,18.3888888889
2018-05-25T00:17:59.228Z,18.3888888889
2018-05-25T00:18:11.802Z,18.3888888889
2018-05-25T00:18:24.297Z,18.3888888889
2018-05-25T00:18:36.717Z,18.3888888889
2018-05-25T00:18:49.169Z,18.3888888889
2018-05-25T00:19:01.598Z,18.3333333333
2018-05-25T00:19:14.001Z,18.3888888889
2018-05-25T00:19:26.411Z,18.3888888889
2018-05-25T00:19:38.817Z,18.3888888889
2018-05-25T00:19:51.212Z,18.3333333333
2018-05-25T00:20:03.616Z,18.3333333333
2018-05-25T00:20:16.033Z,18.3333333333
2018-05-25T00:20:28.463Z,18.3333333333
2018-05-25T00:20:40.862Z,18.3333333333
2018-05-25T00:20:53.258Z,18.3333333333
2018-05-25T00:21:05.679Z,18.3333333333
2018-05-25T00:21:18.087Z,18.3333333333
2018-05-25T00:21:30.495Z,18.3333333333
2018-05-25T00:21:42.894Z,18.3333333333
2018-05-25T00:21:55.290Z,18.3333333333
2018-05-25T00:22:07.701Z,18.3333333333
2018-05-25T00:22:20.123Z,18.3333333333
2018-05-25T00:22:32.522Z,18.3333333333
2018-05-25T00:22:44.932Z,18.3333333333
2018-05-25T00:22:57.506Z,18.3333333333
2018-05-25T00:23:09.968Z,18.2777777778
2018-05-25T00:23:22.371Z,18.3333333333
2018-05-25T00:23:34.779Z,18.2777777778
2018-05-25T00:23:47.180Z,18.3333333333
2018-05-25T00:23:59.582Z,18.3333333333
2018-05-25T00:24:11.993Z,18.3333333333
2018-05-25T00:24:24.413Z,18.2777777778
2018-05-25T00:24:36.820Z,18.2777777778
2018-05-25T00:24:49.683Z,18.2777777778
2018-05-25T00:25:02.332Z,18.2777777778
2018-05-25T00:25:14.750Z,18.2777777778
2018-05-25T00:25:27.164Z,18.2777777778
2018-05-25T00:25:39.578Z,18.2777777778
2018-05-25T00:25:51.992Z,18.2777777778
2018-05-25T00:26:04.416Z,18.2777777778
2018-05-25T00:26:16.817Z,18.2777777778
2018-05-25T00:26:29.232Z,18.3333333333
2018-05-25T00:26:41.652Z,18.2777777778
2018-05-25T00:26:54.054Z,18.2777777778
2018-05-25T00:27:06.451Z,18.2777777778
2018-05-25T00:27:18.875Z,18.2777777778
2018-05-25T00:27:31.299Z,18.2777777778
2018-05-25T00:27:43.850Z,18.2777777778
2018-05-25T00:27:56.279Z,18.2777777778
2018-05-25T00:28:08.673Z,18.2777777778
2018-05-25T00:28:21.079Z,18.2777777778
2018-05-25T00:28:33.486Z,18.2777777778
2018-05-25T00:28:45.899Z,18.2777777778
2018-05-25T00:28:58.297Z,18.2777777778
2018-05-25T00:29:10.725Z,18.2777777778
2018-05-25T00:29:23.168Z,18.2777777778
2018-05-25T00:29:35.574Z,18.2777777778
2018-05-25T00:29:47.977Z,18.2777777778
2018-05-25T00:30:00.382Z,18.2777777778
2018-05-25T00:30:12.797Z,18.2777777778
2018-05-25T00:30:25.201Z,18.2777777778
2018-05-25T00:30:37.617Z,18.2777777778
2018-05-25T00:30:50.036Z,18.2777777778
2018-05-25T00:31:02.469Z,18.2777777778
2018-05-25T00:31:14.880Z,18.2777777778
2018-05-25T00:31:27.279Z,18.2777777778
2018-05-25T00:31:39.725Z,18.2777777778
2018-05-25T00:31:52.177Z,18.2777777778
2018-05-25T00:32:04.565Z,18.2777777778
2018-05-25T00:32:16.970Z,18.2777777778
2018-05-25T00:32:29.377Z,18.2777777778
2018-05-25T00:32:41.785Z,18.2777777778
2018-05-25T00:32:54.262Z,18.2777777778
2018-05-25T00:33:06.686Z,18.2222222222
2018-05-25T00:33:19.159Z,18.2777777778
2018-05-25T00:33:31.581Z,18.2777777778
2018-05-25T00:33:43.994Z,18.2777777778
2018-05-25T00:33:56.398Z,18.2777777778
2018-05-25T00:34:08.809Z,18.2777777778
2018-05-25T00:34:21.215Z,18.2777777778
2018-05-25T00:34:33.620Z,18.2777777778
2018-05-25T00:34:46.036Z,18.2777777778
2018-05-25T00:34:58.440Z,18.2222222222
2018-05-25T00:35:10.859Z,18.2777777778
2018-05-25T00:35:23.275Z,18.2222222222
2018-05-25T00:35:35.692Z,18.2777777778
2018-05-25T00:35:48.096Z,18.2777777778
2018-05-25T00:36:00.547Z,18.2777777778
2018-05-25T00:36:12.962Z,18.2777777778
2018-05-25T00:36:25.365Z,18.2777777778
2018-05-25T00:36:37.796Z,18.2777777778
2018-05-25T00:36:50.191Z,18.2777777778
2018-05-25T00:37:02.591Z,18.3333333333
2018-05-25T00:37:14.997Z,18.2777777778
2018-05-25T00:37:27.423Z,18.2777777778
2018-05-25T00:37:39.810Z,18.2777777778
2018-05-25T00:37:52.294Z,18.2777777778
2018-05-25T00:38:04.705Z,18.2777777778
2018-05-25T00:38:17.262Z,18.2777777778
2018-05-25T00:38:29.662Z,18.2777777778
2018-05-25T00:38:42.049Z,18.2777777778
2018-05-25T00:38:54.450Z,18.2777777778
2018-05-25T00:39:06.854Z,18.2777777778
2018-05-25T00:39:19.258Z,18.2777777778
2018-05-25T00:39:31.650Z,18.2777777778
2018-05-25T00:39:44.056Z,18.2777777778
2018-05-25T00:39:56.447Z,18.2777777778
2018-05-25T00:40:08.857Z,18.2777777778
2018-05-25T00:40:21.263Z,18.2777777778
2018-05-25T00:40:33.676Z,18.2777777778
2018-05-25T00:40:46.088Z,18.2222222222
2018-05-25T00:40:58.674Z,18.2777777778
2018-05-25T00:41:11.125Z,18.2777777778
2018-05-25T00:41:23.561Z,18.2777777778
2018-05-25T00:41:36.008Z,18.2777777778
2018-05-25T00:41:48.397Z,18.2777777778
2018-05-25T00:42:00.803Z,18.2777777778
2018-05-25T00:42:13.218Z,18.2777777778
2018-05-25T00:42:25.621Z,18.2777777778
2018-05-25T00:42:38.022Z,18.2777777778
2018-05-25T00:42:50.452Z,18.2777777778
2018-05-25T00:43:02.849Z,18.2777777778
2018-05-25T00:43:15.273Z,18.2777777778
2018-05-25T00:43:27.671Z,18.2777777778
2018-05-25T00:43:40.081Z,18.2777777778
2018-05-25T00:43:52.478Z,18.2777777778
2018-05-25T00:44:04.891Z,18.2777777778
2018-05-25T00:44:17.286Z,18.2777777778
2018-05-25T00:44:29.683Z,18.2777777778
2018-05-25T00:44:42.078Z,18.2777777778
2018-05-25T00:44:54.482Z,18.2777777778
2018-05-25T00:45:06.880Z,18.2222222222
2018-05-25T00:45:19.292Z,18.2222222222
2018-05-25T00:45:31.696Z,18.2222222222
2018-05-25T00:45:44.105Z,18.2222222222
2018-05-25T00:45:56.557Z,18.2222222222
2018-05-25T00:46:08.964Z,18.2777777778
2018-05-25T00:46:21.398Z,18.2222222222
2018-05-25T00:46:33.803Z,18.2222222222
2018-05-25T00:46:46.208Z,18.2222222222
2018-05-25T00:46:58.602Z,18.2777777778
2018-05-25T00:47:11.062Z,18.2222222222
2018-05-25T00:47:23.469Z,18.2222222222
2018-05-25T00:47:35.886Z,18.2222222222
2018-05-25T00:47:48.291Z,18.2777777778
2018-05-25T00:48:00.689Z,18.2222222222
2018-05-25T00:48:13.092Z,18.2222222222
2018-05-25T00:48:25.640Z,18.2222222222
2018-05-25T00:48:38.109Z,18.2222222222
2018-05-25T00:48:50.561Z,18.2222222222
2018-05-25T00:49:02.982Z,18.2222222222
2018-05-25T00:49:15.390Z,18.2222222222
2018-05-25T00:49:28.132Z,18.2222222222
2018-05-25T00:49:40.527Z,18.2222222222
2018-05-25T00:49:52.981Z,18.2222222222
2018-05-25T00:50:05.385Z,18.2222222222
2018-05-25T00:50:17.822Z,18.2222222222
2018-05-25T00:50:30.794Z,18.2222222222
2018-05-25T00:50:43.193Z,18.1666666667
2018-05-25T00:50:55.604Z,18.2222222222
2018-05-25T00:51:07.996Z,18.2222222222
2018-05-25T00:51:20.412Z,18.1666666667
2018-05-25T00:51:32.816Z,18.1666666667
2018-05-25T00:51:45.218Z,18.2222222222
2018-05-25T00:51:57.673Z,18.2222222222
2018-05-25T00:52:10.081Z,18.2222222222
2018-05-25T00:52:22.617Z,18.2222222222
2018-05-25T00:52:35.017Z,18.2222222222
2018-05-25T00:52:47.404Z,18.2222222222
2018-05-25T00:52:59.793Z,18.2222222222
2018-05-25T00:53:12.190Z,18.2222222222
2018-05-25T00:53:24.624Z,18.2222222222
2018-05-25T00:53:37.038Z,18.2222222222
2018-05-25T00:53:49.445Z,18.2222222222
2018-05-25T00:54:01.844Z,18.2222222222
2018-05-25T00:54:14.248Z,18.2222222222
2018-05-25T00:54:26.665Z,18.2222222222
2018-05-25T00:54:39.208Z,18.2222222222
2018-05-25T00:54:51.657Z,18.2222222222
2018-05-25T00:55:04.059Z,18.2222222222
2018-05-25T00:55:16.601Z,18.2222222222
2018-05-25T00:55:29.005Z,18.2222222222
2018-05-25T00:55:41.472Z,18.2222222222
2018-05-25T00:55:53.888Z,18.2222222222
2018-05-25T00:56:06.282Z,18.2222222222
2018-05-25T00:56:18.673Z,18.2222222222
2018-05-25T00:56:31.074Z,18.2777777778
2018-05-25T00:56:43.538Z,18.2222222222
2018-05-25T00:56:55.934Z,18.2222222222
2018-05-25T00:57:08.381Z,18.2222222222
2018-05-25T00:57:20.775Z,18.2222222222
2018-05-25T00:57:33.172Z,18.2222222222
2018-05-25T00:57:45.574Z,18.2222222222
2018-05-25T00:57:58.009Z,18.2777777778
2018-05-25T00:58:10.432Z,18.2222222222
2018-05-25T00:58:22.837Z,18.2222222222
2018-05-25T00:58:35.238Z,18.2222222222
2018-05-25T00:58:47.661Z,18.2222222222
2018-05-25T00:59:00.068Z,18.2222222222
2018-05-25T00:59:12.460Z,18.2222222222
2018-05-25T00:59:24.878Z,18.2777777778
2018-05-25T00:59:37.361Z,18.2222222222
2018-05-25T00:59:49.770Z,18.2222222222
2018-05-25T01:00:02.166Z,18.2222222222
2018-05-25T01:00:14.589Z,18.2222222222
2018-05-25T01:00:27.045Z,18.2222222222
2018-05-25T01:00:39.629Z,18.2222222222
2018-05-25T01:00:52.072Z,18.2222222222
2018-05-25T01:01:04.499Z,18.2222222222
2018-05-25T01:01:16.934Z,18.2222222222
2018-05-25T01:01:29.346Z,18.2222222222
2018-05-25T01:01:41.784Z,18.2222222222
2018-05-25T01:01:54.354Z,18.1666666667
2018-05-25T01:02:06.769Z,18.2222222222
2018-05-25T01:02:19.161Z,18.2222222222
2018-05-25T01:02:31.562Z,18.1666666667
2018-05-25T01:02:43.964Z,18.2222222222
2018-05-25T01:02:56.364Z,18.1666666667
2018-05-25T01:03:08.798Z,18.2222222222
2018-05-25T01:03:21.218Z,18.1666666667
2018-05-25T01:03:33.607Z,18.2222222222
2018-05-25T01:03:46.026Z,18.1666666667
2018-05-25T01:03:58.427Z,18.1666666667
2018-05-25T01:04:10.815Z,18.2222222222
2018-05-25T01:04:23.222Z,18.1666666667
2018-05-25T01:04:35.688Z,18.1666666667
2018-05-25T01:04:48.144Z,18.1666666667
2018-05-25T01:05:00.565Z,18.1666666667
2018-05-25T01:05:13.133Z,18.2222222222
2018-05-25T01:05:25.569Z,18.1666666667
2018-05-25T01:05:37.967Z,18.1666666667
2018-05-25T01:05:50.372Z,18.1666666667
2018-05-25T01:06:02.778Z,18.1666666667
2018-05-25T01:06:15.230Z,18.1666666667
2018-05-25T01:06:27.643Z,18.1666666667
2018-05-25T01:06:40.047Z,18.1666666667
2018-05-25T01:06:52.450Z,18.1666666667
2018-05-25T01:07:04.852Z,18.1666666667
2018-05-25T01:07:17.249Z,18.1666666667
2018-05-25T01:07:29.647Z,18.1666666667
2018-05-25T01:07:42.061Z,18.1666666667
2018-05-25T01:07:54.483Z,18.1111111111
2018-05-25T01:08:06.884Z,18.1666666667
2018-05-25T01:08:19.291Z,18.1111111111
2018-05-25T01:08:31.699Z,18.1666666667
2018-05-25T01:08:44.101Z,18.1666666667
2018-05-25T01:08:56.506Z,18.1111111111
2018-05-25T01:09:08.952Z,18.1111111111
2018-05-25T01:09:21.354Z,18.1666666667
2018-05-25T01:09:33.753Z,18.1111111111
2018-05-25T01:09:46.162Z,18.1111111111
2018-05-25T01:09:58.581Z,18.1111111111
2018-05-25T01:10:11.007Z,18.1111111111
2018-05-25T01:10:23.403Z,18.1111111111
2018-05-25T01:10:35.820Z,18.1111111111
2018-05-25T01:10:48.239Z,18.1111111111
2018-05-25T01:11:00.648Z,18.1111111111
2018-05-25T01:11:13.049Z,18.1111111111
2018-05-25T01:11:25.457Z,18.1111111111
2018-05-25T01:11:37.861Z,18.1111111111
2018-05-25T01:11:50.279Z,18.1111111111
2018-05-25T01:12:02.679Z,18.1111111111
2018-05-25T01:12:15.246Z,18.1111111111
2018-05-25T01:12:27.657Z,18.1111111111
2018-05-25T01:12:40.122Z,18.1111111111
2018-05-25T01:12:52.517Z,18.1111111111
2018-05-25T01:13:04.919Z,18.1111111111
2018-05-25T01:13:17.322Z,18.1111111111
2018-05-25T01:13:29.726Z,18.1111111111
2018-05-25T01:13:42.119Z,18.0555555556
2018-05-25T01:13:54.515Z,18.0555555556
2018-05-25T01:14:06.919Z,18.1111111111
2018-05-25T01:14:19.338Z,18.0555555556
2018-05-25T01:14:31.743Z,18.0555555556
2018-05-25T01:14:44.134Z,18.1111111111
2018-05-25T01:14:56.542Z,18.1111111111
2018-05-25T01:15:09.207Z,18.0555555556
2018-05-25T01:15:21.608Z,18.0555555556
2018-05-25T01:15:34.005Z,18.0555555556
2018-05-25T01:15:46.416Z,18.0555555556
2018-05-25T01:15:58.823Z,18.0555555556
2018-05-25T01:16:11.249Z,18.0555555556
2018-05-25T01:16:23.661Z,18.0555555556
2018-05-25T01:16:36.065Z,18.0555555556
2018-05-25T01:16:48.469Z,18.0555555556
2018-05-25T01:17:00.870Z,18.0555555556
2018-05-25T01:17:13.333Z,18.0555555556
2018-05-25T01:17:25.728Z,18.0555555556
2018-05-25T01:17:38.140Z,18
2018-05-25T01:17:50.544Z,18.0555555556
2018-05-25T01:18:03.279Z,18.0555555556
2018-05-25T01:18:15.986Z,18
2018-05-25T01:18:28.389Z,18.0555555556
2018-05-25T01:18:40.791Z,18
2018-05-25T01:18:53.189Z,18
2018-05-25T01:19:05.586Z,18
2018-05-25T01:19:17.998Z,18
2018-05-25T01:19:30.396Z,18
2018-05-25T01:19:42.804Z,18
2018-05-25T01:19:55.204Z,18
2018-05-25T01:20:07.627Z,18
2018-05-25T01:20:20.026Z,18
2018-05-25T01:20:32.426Z,17.9444444444
2018-05-25T01:20:44.842Z,17.9444444444
2018-05-25T01:20:57.229Z,18
2018-05-25T01:21:09.626Z,17.9444444444
2018-05-25T01:21:22.039Z,17.9444444444
2018-05-25T01:21:34.451Z,17.9444444444
2018-05-25T01:21:46.858Z,17.9444444444
2018-05-25T01:21:59.262Z,17.9444444444
2018-05-25T01:22:11.651Z,18
2018-05-25T01:22:24.050Z,18
2018-05-25T01:22:36.473Z,17.9444444444
2018-05-25T01:22:48.892Z,17.9444444444
2018-05-25T01:23:01.360Z,17.9444444444
2018-05-25T01:23:13.758Z,17.9444444444
2018-05-25T01:23:26.174Z,17.9444444444
2018-05-25T01:23:38.596Z,17.9444444444
2018-05-25T01:23:50.996Z,17.9444444444
2018-05-25T01:24:03.398Z,18
2018-05-25T01:24:15.816Z,17.9444444444
2018-05-25T01:24:28.211Z,17.9444444444
2018-05-25T01:24:40.619Z,18
2018-05-25T01:24:53.020Z,17.9444444444
2018-05-25T01:25:05.412Z,18
2018-05-25T01:25:17.834Z,18
2018-05-25T01:25:30.242Z,17.9444444444
2018-05-25T01:25:42.639Z,17.9444444444
2018-05-25T01:25:55.049Z,18
2018-05-25T01:26:07.447Z,17.9444444444
2018-05-25T01:26:19.848Z,17.9444444444
2018-05-25T01:26:32.254Z,17.9444444444
2018-05-25T01:26:44.690Z,17.9444444444
2018-05-25T01:26:57.107Z,17.9444444444
2018-05-25T01:27:09.514Z,17.9444444444
2018-05-25T01:27:21.941Z,17.9444444444
2018-05-25T01:27:34.357Z,17.9444444444
2018-05-25T01:27:47.033Z,17.8888888889
2018-05-25T01:27:59.431Z,17.9444444444
2018-05-25T01:28:11.827Z,17.9444444444
2018-05-25T01:28:24.229Z,17.9444444444
2018-05-25T01:28:36.652Z,17.9444444444
2018-05-25T01:28:49.041Z,17.8888888889
2018-05-25T01:29:01.446Z,17.8888888889
2018-05-25T01:29:13.854Z,17.8888888889
2018-05-25T01:29:26.272Z,17.9444444444
2018-05-25T01:29:38.670Z,17.8888888889
2018-05-25T01:29:51.070Z,17.8888888889
2018-05-25T01:30:03.477Z,17.8888888889
2018-05-25T01:30:15.870Z,17.8888888889
2018-05-25T01:30:28.286Z,17.8888888889
2018-05-25T01:30:40.689Z,17.8888888889
2018-05-25T01:30:53.087Z,17.8333333333
2018-05-25T01:31:05.495Z,17.8888888889
2018-05-25T01:31:17.896Z,17.8333333333
2018-05-25T01:31:30.295Z,17.8333333333
2018-05-25T01:31:42.720Z,17.8333333333
2018-05-25T01:31:55.113Z,17.8333333333
2018-05-25T01:32:07.525Z,17.8333333333
2018-05-25T01:32:19.933Z,17.8333333333
2018-05-25T01:32:32.342Z,17.8888888889
2018-05-25T01:32:44.825Z,17.8333333333
2018-05-25T01:32:57.234Z,17.8333333333
2018-05-25T01:33:09.656Z,17.8333333333
2018-05-25T01:33:22.073Z,17.8333333333
2018-05-25T01:33:34.463Z,17.8333333333
2018-05-25T01:33:46.873Z,17.8333333333
2018-05-25T01:33:59.283Z,17.8333333333
2018-05-25T01:34:11.716Z,17.8333333333
2018-05-25T01:34:24.121Z,17.8333333333
2018-05-25T01:34:36.521Z,17.8333333333
2018-05-25T01:34:48.932Z,17.8333333333
2018-05-25T01:35:01.374Z,17.7777777778
2018-05-25T01:35:13.775Z,17.8333333333
2018-05-25T01:35:26.185Z,17.7777777778
2018-05-25T01:35:38.579Z,17.8333333333
2018-05-25T01:35:50.986Z,17.7777777778
2018-05-25T01:36:03.386Z,17.8333333333
2018-05-25T01:36:15.779Z,17.7777777778
2018-05-25T01:36:28.181Z,17.7777777778
2018-05-25T01:36:40.590Z,17.7777777778
2018-05-25T01:36:52.985Z,17.8333333333
2018-05-25T01:37:05.394Z,17.7777777778
2018-05-25T01:37:17.788Z,17.7777777778
2018-05-25T01:37:30.192Z,17.7777777778
2018-05-25T01:37:42.618Z,17.7777777778
2018-05-25T01:37:55.037Z,17.7777777778
2018-05-25T01:38:07.602Z,17.7777777778
2018-05-25T01:38:20.068Z,17.7777777778
2018-05-25T01:38:32.459Z,17.7777777778
2018-05-25T01:38:44.997Z,17.7777777778
2018-05-25T01:38:57.388Z,17.7777777778
2018-05-25T01:39:09.797Z,17.7222222222
2018-05-25T01:39:22.193Z,17.7777777778
2018-05-25T01:39:34.618Z,17.7777777778
2018-05-25T01:39:47.009Z,17.7777777778
2018-05-25T01:39:59.448Z,17.7222222222
2018-05-25T01:40:11.847Z,17.7222222222
2018-05-25T01:40:24.237Z,17.7222222222
2018-05-25T01:40:36.642Z,17.7222222222
2018-05-25T01:40:49.046Z,17.7222222222
2018-05-25T01:41:01.534Z,17.7222222222
2018-05-25T01:41:13.941Z,17.7222222222
2018-05-25T01:41:26.348Z,17.7222222222
2018-05-25T01:41:38.746Z,17.7222222222
2018-05-25T01:41:51.192Z,17.7222222222
2018-05-25T01:42:03.604Z,17.6666666667
2018-05-25T01:42:16.009Z,17.6666666667
2018-05-25T01:42:28.413Z,17.7222222222
2018-05-25T01:42:40.812Z,17.7222222222
2018-05-25T01:42:53.227Z,17.6666666667
2018-05-25T01:43:05.662Z,17.6666666667
2018-05-25T01:43:18.075Z,17.7222222222
2018-05-25T01:43:30.471Z,17.6666666667
2018-05-25T01:43:42.873Z,17.6666666667
2018-05-25T01:43:55.280Z,17.6666666667
2018-05-25T01:44:07.692Z,17.6666666667
2018-05-25T01:44:20.089Z,17.6666666667
2018-05-25T01:44:32.497Z,17.6666666667
2018-05-25T01:44:44.912Z,17.6666666667
2018-05-25T01:44:57.341Z,17.6666666667
2018-05-25T01:45:09.770Z,17.6666666667
2018-05-25T01:45:22.200Z,17.6666666667
2018-05-25T01:45:34.620Z,17.6666666667
2018-05-25T01:45:47.047Z,17.6666666667
2018-05-25T01:45:59.470Z,17.6666666667
2018-05-25T01:46:11.876Z,17.6666666667
2018-05-25T01:46:24.287Z,17.6666666667
2018-05-25T01:46:36.777Z,17.6666666667
2018-05-25T01:46:49.210Z,17.6111111111
2018-05-25T01:47:01.629Z,17.6666666667
2018-05-25T01:47:14.033Z,17.6666666667
2018-05-25T01:47:26.447Z,17.6666666667
2018-05-25T01:47:38.853Z,17.6666666667
2018-05-25T01:47:51.263Z,17.6111111111
2018-05-25T01:48:03.668Z,17.6111111111
2018-05-25T01:48:16.102Z,17.6111111111
2018-05-25T01:48:28.674Z,17.6111111111
2018-05-25T01:48:41.080Z,17.6111111111
2018-05-25T01:48:53.490Z,17.6111111111
2018-05-25T01:49:05.886Z,17.6111111111
2018-05-25T01:49:18.342Z,17.6111111111
2018-05-25T01:49:30.798Z,17.6111111111
2018-05-25T01:49:43.197Z,17.6111111111
2018-05-25T01:49:55.602Z,17.5555555556
2018-05-25T01:50:08.003Z,17.6111111111
2018-05-25T01:50:20.481Z,17.5555555556
2018-05-25T01:50:32.887Z,17.6111111111
2018-05-25T01:50:45.295Z,17.5555555556
2018-05-25T01:50:57.708Z,17.5555555556
2018-05-25T01:51:10.117Z,17.5555555556
2018-05-25T01:51:22.571Z,17.5555555556
2018-05-25T01:51:34.982Z,17.5555555556
2018-05-25T01:51:47.429Z,17.5555555556
2018-05-25T01:51:59.837Z,17.5555555556
2018-05-25T01:52:12.241Z,17.5555555556
2018-05-25T01:52:24.803Z,17.5555555556
2018-05-25T01:52:37.206Z,17.5555555556
2018-05-25T01:52:49.619Z,17.5555555556
2018-05-25T01:53:02.024Z,17.5555555556
2018-05-25T01:53:14.419Z,17.5555555556
2018-05-25T01:53:26.820Z,17.5
2018-05-25T01:53:39.235Z,17.5555555556
2018-05-25T01:53:51.640Z,17.5
2018-05-25T01:54:04.057Z,17.5555555556
2018-05-25T01:54:16.510Z,17.5555555556
2018-05-25T01:54:28.921Z,17.5
2018-05-25T01:54:41.336Z,17.5
2018-05-25T01:54:53.733Z,17.5
2018-05-25T01:55:06.201Z,17.5
2018-05-25T01:55:18.754Z,17.5
2018-05-25T01:55:31.275Z,17.5555555556
2018-05-25T01:55:43.674Z,17.5
2018-05-25T01:55:56.093Z,17.5
2018-05-25T01:56:08.487Z,17.5
2018-05-25T01:56:20.878Z,17.5
2018-05-25T01:56:33.271Z,17.5
2018-05-25T01:56:45.674Z,17.5
2018-05-25T01:56:58.080Z,17.5
2018-05-25T01:57:10.478Z,17.5
2018-05-25T01:57:22.906Z,17.5
2018-05-25T01:57:35.326Z,17.5
2018-05-25T01:57:47.723Z,17.5
2018-05-25T01:58:00.132Z,17.4444444444
2018-05-25T01:58:12.549Z,17.4444444444
2018-05-25T01:58:24.937Z,17.4444444444
2018-05-25T01:58:37.347Z,17.4444444444
2018-05-25T01:58:49.804Z,17.4444444444
2018-05-25T01:59:02.220Z,17.4444444444
2018-05-25T01:59:14.637Z,17.4444444444
2018-05-25T01:59:27.076Z,17.4444444444
2018-05-25T01:59:39.492Z,17.4444444444
2018-05-25T01:59:51.889Z,17.4444444444
2018-05-25T02:00:04.295Z,17.3888888889
2018-05-25T02:00:16.739Z,17.3888888889
2018-05-25T02:00:29.217Z,17.4444444444
2018-05-25T02:00:41.672Z,17.3888888889
2018-05-25T02:00:54.105Z,17.3888888889
2018-05-25T02:01:06.526Z,17.3888888889
2018-05-25T02:01:19.060Z,17.3888888889
2018-05-25T02:01:31.472Z,17.3888888889
2018-05-25T02:01:43.867Z,17.3888888889
2018-05-25T02:01:56.411Z,17.3888888889
2018-05-25T02:02:08.810Z,17.3888888889
2018-05-25T02:02:21.209Z,17.3888888889
2018-05-25T02:02:33.619Z,17.3333333333
2018-05-25T02:02:46.028Z,17.3333333333
2018-05-25T02:02:58.451Z,17.3888888889
2018-05-25T02:03:10.849Z,17.3333333333
2018-05-25T02:03:23.259Z,17.3333333333
2018-05-25T02:03:35.665Z,17.3333333333
2018-05-25T02:03:48.077Z,17.3333333333
2018-05-25T02:04:00.466Z,17.3333333333
2018-05-25T02:04:12.905Z,17.3333333333
2018-05-25T02:04:25.295Z,17.3333333333
2018-05-25T02:04:37.693Z,17.3333333333
2018-05-25T02:04:50.097Z,17.3333333333
2018-05-25T02:05:02.500Z,17.3333333333
2018-05-25T02:05:15.069Z,17.3333333333
2018-05-25T02:05:27.530Z,17.3333333333
2018-05-25T02:05:39.920Z,17.3333333333
2018-05-25T02:05:52.304Z,17.3333333333
2018-05-25T02:06:04.701Z,17.2777777778
2018-05-25T02:06:17.117Z,17.2777777778
2018-05-25T02:06:29.518Z,17.3333333333
2018-05-25T02:06:41.914Z,17.3333333333
2018-05-25T02:06:54.316Z,17.2777777778
2018-05-25T02:07:06.718Z,17.2777777778
2018-05-25T02:07:19.118Z,17.2777777778
2018-05-25T02:07:31.557Z,17.3333333333
2018-05-25T02:07:43.963Z,17.2777777778
2018-05-25T02:07:56.363Z,17.2777777778
2018-05-25T02:08:08.776Z,17.2777777778
2018-05-25T02:08:21.188Z,17.2777777778
2018-05-25T02:08:33.641Z,17.2777777778
2018-05-25T02:08:46.052Z,17.2222222222
2018-05-25T02:08:58.508Z,17.2777777778
2018-05-25T02:09:10.918Z,17.2777777778
2018-05-25T02:09:23.341Z,17.2222222222
2018-05-25T02:09:35.817Z,17.2222222222
2018-05-25T02:09:48.238Z,17.2222222222
2018-05-25T02:10:00.708Z,17.2222222222
2018-05-25T02:10:13.156Z,17.2222222222